Time;durP1;ratioP1;P1;durP2;ratioP2;P2;SDS_P1;SDS_P2;PMS_P1;PMS_P2;Temp;Humidity;BMP_temperature;BMP_pressure;BME280_temperature;BME280_humidity;BME280_pressure;Samples;Min_cycle;Max_cycle;Signal;HPM_P1;HPM_P2
2021/12/08 00:02:15;;;;;;;0.10;0.10;;;;;;;7.70;71.13;99136.59;5019956;28;20026;-78
2021/12/08 00:04:42;;;;;;;0.03;0.03;;;;;;;7.73;71.33;99141.75;5014172;28;20850;-80
2021/12/08 00:07:09;;;;;;;0.10;0.10;;;;;;;7.77;71.43;99156.53;5028330;28;20424;-80
2021/12/08 00:15:13;;;;;;;0.20;0.20;;;;;;;7.95;70.64;99152.41;5055764;28;20051;-79
2021/12/08 00:17:39;;;;;;;0.10;0.10;;;;;;;7.94;70.96;99150.66;5041619;28;20125;-79
2021/12/08 00:20:07;;;;;;;0.10;0.10;;;;;;;7.98;70.42;99133.81;5049789;28;20025;-78
2021/12/08 00:22:33;;;;;;;0.10;0.10;;;;;;;7.96;70.68;99130.34;5045430;28;20037;-78
2021/12/08 00:25:00;;;;;;;0.10;0.10;;;;;;;7.95;71.05;99128.66;5046021;28;20037;-79
2021/12/08 00:27:26;;;;;;;0.10;0.10;;;;;;;8.00;70.50;99124.06;5047159;28;20048;-78
2021/12/08 00:29:52;;;;;;;0.57;0.57;;;;;;;8.04;70.62;99116.91;5041105;28;20116;-79
2021/12/08 00:32:20;;;;;;;0.10;0.10;;;;;;;8.08;70.73;99119.34;5041234;28;20499;-77
2021/12/08 00:34:47;;;;;;;0.10;0.10;;;;;;;8.13;70.39;99123.63;5038753;28;20041;-77
2021/12/08 00:37:13;;;;;;;0.10;0.10;;;;;;;8.12;71.19;99127.16;5042903;28;20061;-77
2021/12/08 00:39:39;;;;;;;0.98;0.98;;;;;;;8.17;70.91;99133.13;5037677;28;20136;-78
2021/12/08 00:42:06;;;;;;;0.25;0.25;;;;;;;8.24;71.01;99137.25;5048507;28;20063;-77
2021/12/08 00:44:32;;;;;;;0.10;0.10;;;;;;;8.26;70.61;99135.41;5047202;28;20037;-77
2021/12/08 00:46:58;;;;;;;0.10;0.10;;;;;;;8.25;70.99;99125.78;5042642;28;20041;-77
2021/12/08 00:49:24;;;;;;;0.10;0.10;;;;;;;8.37;70.82;99132.38;5041391;28;20033;-76
2021/12/08 00:51:50;;;;;;;0.15;0.15;;;;;;;8.37;71.15;99143.81;5045061;28;20067;-76
2021/12/08 00:54:16;;;;;;;0.20;0.20;;;;;;;8.39;70.76;99144.59;5041461;28;20034;-76
2021/12/08 00:56:43;;;;;;;0.13;0.13;;;;;;;8.51;70.46;99160.91;5038422;28;20108;-76
2021/12/08 00:59:09;;;;;;;0.10;0.10;;;;;;;8.53;70.75;99162.56;5038303;28;20033;-76
2021/12/08 01:01:35;;;;;;;0.17;0.17;;;;;;;8.55;70.75;99171.28;5039421;28;20032;-76
2021/12/08 01:04:02;;;;;;;0.10;0.10;;;;;;;8.52;70.38;99176.69;5042244;28;20053;-79
2021/12/08 01:06:28;;;;;;;0.10;0.10;;;;;;;8.53;70.78;99173.13;5048066;28;20052;-79
2021/12/08 01:08:54;;;;;;;0.17;0.17;;;;;;;8.55;70.70;99173.94;5032808;28;20366;-78
2021/12/08 01:11:21;;;;;;;0.20;0.20;;;;;;;8.59;70.30;99177.31;5045371;28;20068;-79
2021/12/08 01:13:49;;;;;;;0.10;0.10;;;;;;;8.60;70.46;99178.16;5036461;28;20060;-79
2021/12/08 01:16:16;;;;;;;0.10;0.10;;;;;;;8.63;70.61;99188.63;5042313;28;20025;-78
2021/12/08 01:18:42;;;;;;;0.10;0.10;;;;;;;8.61;70.64;99190.44;5039689;28;20079;-78
2021/12/08 01:21:10;;;;;;;0.10;0.10;;;;;;;8.60;70.27;99189.59;5039535;28;20489;-79
2021/12/08 01:23:38;;;;;;;0.10;0.10;;;;;;;8.68;70.55;99176.09;5021804;28;20029;-79
2021/12/08 01:26:06;;;;;;;0.10;0.10;;;;;;;8.55;70.69;99186.28;5026644;28;20378;-79
2021/12/08 01:28:32;;;;;;;0.13;0.13;;;;;;;8.67;70.43;99187.56;5023137;28;20397;-79
2021/12/08 01:31:00;;;;;;;0.10;0.10;;;;;;;8.64;70.15;99201.75;5028990;28;20106;-79
2021/12/08 01:33:31;;;;;;;0.77;0.77;;;;;;;8.60;69.97;99202.78;5030986;28;20385;-79
2021/12/08 01:35:57;;;;;;;0.10;0.10;;;;;;;8.66;70.66;99206.97;5031170;28;20038;-79
2021/12/08 01:38:24;;;;;;;0.10;0.10;;;;;;;8.65;70.59;99213.16;5032411;28;20388;-79
2021/12/08 01:40:51;;;;;;;0.20;0.20;;;;;;;8.64;70.12;99211.47;5033805;28;20053;-79
2021/12/08 01:43:27;;;;;;;0.10;0.10;;;;;;;8.65;70.62;99210.53;5024592;28;20100;-79
2021/12/08 01:46:00;;;;;;;0.20;0.20;;;;;;;8.72;70.34;99197.03;5025184;28;20040;-80
2021/12/08 01:48:32;;;;;;;0.15;0.15;;;;;;;8.67;70.37;99196.38;5028431;28;20065;-78
2021/12/08 01:51:10;;;;;;;0.20;0.20;;;;;;;8.66;70.12;99194.63;5024903;28;20120;-80
2021/12/08 01:53:38;;;;;;;0.10;0.10;;;;;;;8.70;69.92;99201.50;5029661;28;20045;-79
2021/12/08 01:56:05;;;;;;;0.10;0.10;;;;;;;8.73;70.72;99204.06;5022342;28;20056;-78
2021/12/08 01:58:32;;;;;;;0.10;0.10;;;;;;;8.71;70.34;99205.88;5023614;28;20053;-79
2021/12/08 02:01:05;;;;;;;0.10;0.10;;;;;;;8.74;70.18;99215.47;5023687;28;20495;-79
2021/12/08 02:03:32;;;;;;;0.20;0.20;;;;;;;8.79;69.82;99224.06;5029861;28;20030;-79
2021/12/08 02:05:59;;;;;;;1.17;1.08;;;;;;;8.86;70.12;99227.31;5029963;28;20029;-79
2021/12/08 02:08:26;;;;;;;0.45;0.45;;;;;;;8.81;70.04;99221.34;5030512;28;20559;-79
2021/12/08 02:10:54;;;;;;;0.10;0.10;;;;;;;8.87;69.87;99234.31;5022631;28;20472;-79
2021/12/08 02:13:20;;;;;;;0.10;0.10;;;;;;;8.83;70.24;99223.00;5030901;28;20034;-79
2021/12/08 02:15:47;;;;;;;0.10;0.10;;;;;;;8.87;69.96;99229.03;5022085;28;20060;-79
2021/12/08 02:18:15;;;;;;;0.13;0.13;;;;;;;8.91;70.22;99230.66;5029495;28;20034;-80
2021/12/08 02:20:45;;;;;;;0.13;0.13;;;;;;;8.95;70.44;99232.25;5031367;28;20083;-79
2021/12/08 02:23:12;;;;;;;0.10;0.10;;;;;;;8.98;69.57;99233.91;5021939;28;20038;-78
2021/12/08 02:25:39;;;;;;;0.10;0.10;;;;;;;8.99;69.79;99233.84;5021266;28;20033;-79
2021/12/08 02:28:08;;;;;;;0.10;0.10;;;;;;;9.00;69.99;99238.22;5017923;28;20113;-78
2021/12/08 02:30:43;;;;;;;0.10;0.10;;;;;;;8.90;69.95;99235.06;5024967;28;20063;-79
2021/12/08 02:49:57;;;;;;;0.10;0.10;;;;;;;8.91;68.68;99233.31;5069149;27;20456;-78
2021/12/08 02:52:23;;;;;;;0.20;0.20;;;;;;;8.72;69.12;99236.66;5057793;28;20041;-78
2021/12/08 02:54:52;;;;;;;0.20;0.20;;;;;;;8.89;68.29;99238.63;5046477;28;20037;-79
2021/12/08 02:57:24;;;;;;;0.10;0.10;;;;;;;8.94;68.01;99250.81;5039199;28;20108;-79
2021/12/08 02:59:51;;;;;;;;;;;;;;;9.04;67.84;99247.72;5040168;28;20033;-80
2021/12/08 03:02:17;;;;;;;0.10;0.10;;;;;;;8.85;67.84;99242.31;5039837;28;19924;-80
2021/12/08 03:04:45;;;;;;;6.05;0.43;;;;;;;8.81;68.13;99247.75;5037433;28;20037;-80
2021/12/08 03:07:11;;;;;;;0.10;0.10;;;;;;;8.85;68.12;99258.16;5045925;28;20025;-79
2021/12/08 03:09:37;;;;;;;0.10;0.10;;;;;;;8.83;67.71;99253.84;5030075;28;20039;-80
2021/12/08 03:12:04;;;;;;;0.10;0.10;;;;;;;8.86;67.79;99253.72;5032416;28;20036;-80
2021/12/08 03:14:31;;;;;;;1.05;1.05;;;;;;;8.87;67.75;99260.72;5038270;28;20054;-78
2021/12/08 03:17:00;;;;;;;0.10;0.10;;;;;;;8.82;68.39;99260.94;5035468;28;20047;-80
2021/12/08 03:19:29;;;;;;;0.20;0.20;;;;;;;8.83;67.55;99265.28;5039472;28;20036;-78
2021/12/08 03:22:14;;;;;;;0.15;0.15;;;;;;;8.95;67.67;99256.03;5037132;28;20040;-80
2021/12/08 03:24:46;;;;;;;0.10;0.10;;;;;;;8.81;67.45;99260.97;5041673;28;20464;-79
2021/12/08 03:27:16;;;;;;;0.10;0.10;;;;;;;8.77;67.50;99247.00;5040101;28;20036;-80
2021/12/08 03:29:51;;;;;;;0.10;0.10;;;;;;;8.95;67.66;99249.88;5038928;28;20041;-79
2021/12/08 03:32:28;;;;;;;0.15;0.15;;;;;;;8.89;67.29;99264.19;5029569;28;20109;-80
2021/12/08 03:34:54;;;;;;;0.10;0.10;;;;;;;8.73;67.47;99248.94;5039386;28;20041;-80
2021/12/08 03:37:34;;;;;;;0.10;0.10;;;;;;;8.82;67.56;99250.38;5045574;28;20064;-80
2021/12/08 03:40:05;;;;;;;0.15;0.15;;;;;;;8.71;67.82;99250.78;5044411;28;20444;-79
2021/12/08 03:42:35;;;;;;;0.40;0.40;;;;;;;8.73;67.26;99256.88;5047522;28;20033;-79
2021/12/08 03:45:06;;;;;;;0.10;0.10;;;;;;;8.77;67.31;99254.09;5023920;28;20030;-80
2021/12/08 03:47:34;;;;;;;0.10;0.10;;;;;;;8.59;67.40;99259.16;5044592;28;20369;-79
2021/12/08 03:50:02;;;;;;;0.10;0.10;;;;;;;8.68;66.67;99272.00;5029943;28;20041;-79
2021/12/08 03:52:28;;;;;;;0.20;0.20;;;;;;;8.63;66.84;99278.38;5028294;28;20021;-80
2021/12/08 03:54:55;;;;;;;0.77;0.77;;;;;;;8.53;67.09;99277.84;5033722;28;20044;-77
2021/12/08 03:57:21;;;;;;;0.13;0.13;;;;;;;8.45;67.10;99288.66;5037203;28;20041;-78
2021/12/08 03:59:47;;;;;;;0.10;0.10;;;;;;;8.33;67.38;99295.22;5038077;28;20489;-79
2021/12/08 04:02:13;;;;;;;0.10;0.10;;;;;;;8.38;67.18;99303.84;5016507;28;20428;-79
2021/12/08 04:04:46;;;;;;;2.47;2.38;;;;;;;8.29;67.17;99317.38;5024268;28;20032;-79
2021/12/08 04:07:14;;;;;;;0.65;0.65;;;;;;;8.27;67.06;99311.28;5022182;28;20037;-80
2021/12/08 04:09:43;;;;;;;0.10;0.10;;;;;;;8.21;66.91;99311.50;5018853;28;20046;-80
2021/12/08 04:12:13;;;;;;;0.38;0.38;;;;;;;8.14;66.90;99312.63;5029052;28;20496;-79
2021/12/08 04:14:47;;;;;;;0.20;0.20;;;;;;;8.17;67.19;99315.16;5019771;28;20032;-76
2021/12/08 04:17:19;;;;;;;0.10;0.10;;;;;;;8.15;66.91;99309.06;5023063;28;20052;-78
2021/12/08 04:19:48;;;;;;;0.10;0.10;;;;;;;8.13;67.48;99301.22;5019638;28;20498;-78
2021/12/08 04:22:24;;;;;;;0.17;0.17;;;;;;;8.16;67.54;99301.13;5020174;28;20075;-79
2021/12/08 04:24:51;;;;;;;0.20;0.20;;;;;;;8.02;67.25;99298.94;5023590;28;20033;-79
2021/12/08 04:27:25;;;;;;;0.10;0.10;;;;;;;8.16;66.49;99302.88;5012761;28;20034;-78
2021/12/08 04:29:52;;;;;;;0.10;0.10;;;;;;;8.08;66.26;99309.28;5023394;28;21261;-80
2021/12/08 04:32:23;;;;;;;0.10;0.10;;;;;;;8.04;66.80;99310.31;5023600;28;20069;-79
2021/12/08 04:34:54;;;;;;;0.20;0.20;;;;;;;8.00;66.29;99310.47;5026607;28;20548;-80
2021/12/08 04:37:27;;;;;;;0.15;0.15;;;;;;;7.98;66.33;99310.50;5022884;28;20393;-79
2021/12/08 04:40:17;;;;;;;1.13;1.13;;;;;;;7.85;66.73;99322.38;5023585;28;20034;-79
2021/12/08 04:42:58;;;;;;;0.17;0.17;;;;;;;7.83;66.06;99340.06;5010389;28;20507;-80
2021/12/08 04:45:39;;;;;;;0.20;0.20;;;;;;;7.81;66.43;99348.00;5016690;28;20485;-79
2021/12/08 04:48:20;;;;;;;1.58;1.48;;;;;;;7.81;66.29;99331.31;5000851;28;20594;-80
2021/12/08 04:53:57;;;;;;;0.10;0.10;;;;;;;7.64;66.01;99340.66;5132237;27;20956;-80
2021/12/08 05:02:14;;;;;;;0.20;0.20;;;;;;;7.79;66.31;99339.28;5127631;28;20040;-80
2021/12/08 05:05:21;;;;;;;0.20;0.20;;;;;;;7.71;65.67;99344.81;5131186;28;20385;-80
2021/12/08 05:07:34;;;;;;;0.10;0.10;;;;;;;7.54;66.40;99337.44;5130707;28;20065;-79
2021/12/08 05:10:07;;;;;;;0.13;0.13;;;;;;;7.48;66.62;99339.38;5126293;28;20030;-78
2021/12/08 05:12:35;;;;;;;0.10;0.10;;;;;;;7.47;66.62;99337.69;5128814;28;20020;-79
2021/12/08 05:15:15;;;;;;;0.20;0.20;;;;;;;7.49;66.94;99338.47;5129281;28;20092;-78
2021/12/08 05:17:49;;;;;;;0.38;0.38;;;;;;;7.46;66.50;99342.06;5129338;28;20023;-79
2021/12/08 05:20:32;;;;;;;0.10;0.10;;;;;;;7.41;67.04;99344.88;5130791;28;20072;-78
2021/12/08 05:23:08;;;;;;;0.20;0.20;;;;;;;7.39;67.20;99336.16;5131105;28;20050;-76
2021/12/08 05:25:37;;;;;;;0.10;0.10;;;;;;;7.32;67.33;99349.56;5131301;28;20028;-76
2021/12/08 05:28:08;;;;;;;0.10;0.10;;;;;;;7.29;67.19;99348.75;5131230;28;20102;-79
2021/12/08 05:30:40;;;;;;;0.10;0.10;;;;;;;7.29;67.29;99351.38;5125396;28;20035;-79
2021/12/08 05:33:08;;;;;;;0.10;0.10;;;;;;;7.28;67.03;99354.91;5130459;28;20035;-80
2021/12/08 05:35:37;;;;;;;0.10;0.10;;;;;;;7.27;67.19;99363.72;5131314;28;20277;-78
2021/12/08 05:38:03;;;;;;;0.10;0.10;;;;;;;7.28;66.80;99360.19;5128032;28;20034;-79
2021/12/08 05:40:43;;;;;;;0.10;0.10;;;;;;;7.25;67.31;99375.22;5129322;28;20051;-77
2021/12/08 05:43:10;;;;;;;0.20;0.20;;;;;;;7.25;66.72;99383.13;5129982;28;20481;-76
2021/12/08 05:45:37;;;;;;;0.10;0.10;;;;;;;7.16;67.23;99383.41;5130222;28;20032;-79
2021/12/08 05:48:04;;;;;;;0.10;0.10;;;;;;;7.22;66.82;99386.72;5130428;28;20028;-79
2021/12/08 05:50:38;;;;;;;0.10;0.10;;;;;;;7.20;66.82;99382.41;5130581;28;20070;-79
2021/12/08 05:53:05;;;;;;;0.10;0.10;;;;;;;7.13;66.72;99387.00;5128154;28;20524;-78
2021/12/08 05:55:32;;;;;;;0.20;0.20;;;;;;;7.16;66.86;99386.03;5123476;28;20085;-79
2021/12/08 05:57:58;;;;;;;0.20;0.20;;;;;;;7.17;67.01;99393.88;5129840;28;20023;-77
2021/12/08 06:00:32;;;;;;;0.10;0.10;;;;;;;7.15;66.68;99393.06;5130217;28;20035;-77
2021/12/08 06:02:59;;;;;;;0.10;0.10;;;;;;;7.10;66.27;99401.13;5126621;28;20109;-79
2021/12/08 06:05:28;;;;;;;0.10;0.10;;;;;;;7.05;66.74;99404.78;5113806;28;20088;-77
2021/12/08 06:07:54;;;;;;;0.10;0.10;;;;;;;7.05;67.28;99403.03;5115881;28;20088;-78
2021/12/08 06:10:29;;;;;;;0.20;0.20;;;;;;;7.07;66.88;99410.88;5108164;28;20039;-80
2021/12/08 06:12:57;;;;;;;0.10;0.10;;;;;;;6.97;66.76;99399.75;5116056;28;20562;-78
2021/12/08 06:15:26;;;;;;;0.20;0.20;;;;;;;7.01;66.71;99406.63;5115021;28;20040;-78
2021/12/08 06:17:53;;;;;;;0.20;0.20;;;;;;;6.95;66.44;99397.16;5114645;28;20051;-79
2021/12/08 06:20:21;;;;;;;0.20;0.20;;;;;;;6.94;66.68;99402.44;5108440;28;20063;-79
2021/12/08 06:22:51;;;;;;;0.20;0.20;;;;;;;6.88;66.44;99408.75;5100062;28;20032;-78
2021/12/08 06:25:18;;;;;;;0.52;0.52;;;;;;;6.89;66.50;99414.88;5101609;28;20028;-79
2021/12/08 06:27:45;;;;;;;0.10;0.10;;;;;;;6.85;66.33;99415.88;5097547;28;20399;-79
2021/12/08 06:30:16;;;;;;;0.10;0.10;;;;;;;6.85;66.39;99423.78;5113639;28;20030;-79
2021/12/08 06:32:42;;;;;;;0.20;0.20;;;;;;;6.86;66.72;99423.72;5112626;28;20428;-78
2021/12/08 06:35:16;;;;;;;0.10;0.10;;;;;;;6.87;66.33;99414.94;5115101;28;20034;-78
2021/12/08 06:37:43;;;;;;;0.10;0.10;;;;;;;6.84;66.66;99424.69;5105149;28;20024;-78
2021/12/08 06:40:19;;;;;;;0.60;0.60;;;;;;;6.82;66.36;99435.25;5102387;28;20028;-79
2021/12/08 06:42:48;;;;;;;0.10;0.10;;;;;;;6.82;66.34;99437.88;5101784;28;20028;-80
2021/12/08 06:45:20;;;;;;;0.15;0.15;;;;;;;6.81;66.89;99433.53;5102820;28;20494;-80
2021/12/08 06:47:50;;;;;;;0.20;0.20;;;;;;;6.75;66.39;99431.94;5105742;28;20035;-80
2021/12/08 06:50:24;;;;;;;0.20;0.20;;;;;;;6.83;66.83;99428.22;5103164;28;20480;-78
2021/12/08 06:52:51;;;;;;;0.20;0.20;;;;;;;6.79;66.24;99435.31;5109993;28;20050;-80
2021/12/08 06:55:31;;;;;;;0.20;0.20;;;;;;;6.80;66.65;99431.78;5108498;28;20023;-81
2021/12/08 06:58:03;;;;;;;0.10;0.10;;;;;;;6.82;66.63;99434.38;5084623;28;20538;-81
2021/12/08 07:01:09;;;;;;;0.17;0.17;;;;;;;6.94;66.60;99444.56;5111945;28;20076;-81
2021/12/08 07:03:33;;;;;;;0.10;0.10;;;;;;;6.95;66.78;99452.44;5111522;28;20067;-80
2021/12/08 07:06:10;;;;;;;0.20;0.20;;;;;;;7.05;66.35;99458.34;5109042;28;20028;-79
2021/12/08 07:08:49;;;;;;;0.10;0.10;;;;;;;7.05;66.32;99462.72;5115794;28;20035;-82
2021/12/08 07:11:18;;;;;;;0.10;0.10;;;;;;;7.06;66.44;99457.41;5111138;28;20032;-81
2021/12/08 07:13:45;;;;;;;0.20;0.20;;;;;;;7.10;66.51;99458.19;5099702;28;20032;-77
2021/12/08 07:16:16;;;;;;;0.10;0.10;;;;;;;7.08;65.96;99468.78;5104388;28;20035;-79
2021/12/08 07:18:58;;;;;;;0.20;0.20;;;;;;;7.10;65.81;99458.19;5113486;28;20028;-80
2021/12/08 07:21:29;;;;;;;0.10;0.10;;;;;;;7.03;65.27;99456.63;5112316;28;20360;-82
2021/12/08 07:24:07;;;;;;;0.20;0.20;;;;;;;7.07;65.83;99469.66;5085240;28;20416;-80
2021/12/08 07:26:38;;;;;;;0.20;0.20;;;;;;;7.04;65.68;99472.41;5096724;28;20032;-79
2021/12/08 07:29:08;;;;;;;0.20;0.20;;;;;;;6.94;65.33;99468.28;5115360;28;20189;-81
2021/12/08 07:31:40;;;;;;;0.10;0.10;;;;;;;6.89;65.79;99473.69;5115948;28;20031;-81
2021/12/08 07:34:13;;;;;;;0.25;0.25;;;;;;;6.94;65.57;99470.91;5113570;28;20122;-84
2021/12/08 07:36:42;;;;;;;0.20;0.20;;;;;;;6.88;65.91;99479.84;5097335;28;20060;-80
2021/12/08 07:39:23;;;;;;;0.20;0.20;;;;;;;6.87;65.99;99482.53;5094744;28;20107;-81
2021/12/08 07:41:55;;;;;;;0.15;0.15;;;;;;;6.94;65.66;99491.97;5106727;28;20492;-80
2021/12/08 07:44:23;;;;;;;0.10;0.10;;;;;;;6.90;65.98;99492.97;5098582;28;20028;-80
2021/12/08 07:46:57;;;;;;;0.20;0.20;;;;;;;7.00;66.00;99504.13;5094655;28;20020;-82
2021/12/08 07:49:29;;;;;;;0.17;0.17;;;;;;;6.93;65.85;99490.28;5095077;28;20036;-81
2021/12/08 07:52:02;;;;;;;0.20;0.20;;;;;;;6.95;65.91;99488.44;5094550;28;20028;-82
2021/12/08 07:54:31;;;;;;;0.20;0.20;;;;;;;6.98;66.11;99483.09;5094587;28;20028;-81
2021/12/08 07:56:59;;;;;;;0.20;0.20;;;;;;;6.93;65.51;99482.38;5089069;28;20046;-81
2021/12/08 07:59:26;;;;;;;0.10;0.10;;;;;;;7.02;65.43;99484.75;5093061;28;20046;-80
2021/12/08 08:01:57;;;;;;;0.10;0.10;;;;;;;6.94;65.37;99486.69;5103013;28;20032;-80
2021/12/08 08:04:26;;;;;;;0.10;0.10;;;;;;;6.96;65.31;99488.38;5098480;28;20031;-79
2021/12/08 08:06:57;;;;;;;0.10;0.10;;;;;;;7.00;64.87;99470.72;5113410;28;20036;-82
2021/12/08 08:09:28;;;;;;;0.10;0.10;;;;;;;7.01;64.94;99477.75;5114027;28;20032;-81
2021/12/08 08:12:00;;;;;;;0.10;0.10;;;;;;;6.96;65.35;99484.91;5103054;28;20503;-82
2021/12/08 08:14:32;;;;;;;0.20;0.20;;;;;;;7.06;64.81;99481.09;5111150;28;20085;-81
2021/12/08 08:17:00;;;;;;;0.17;0.17;;;;;;;7.01;64.76;99476.88;5113421;28;20032;-81
2021/12/08 08:19:30;;;;;;;0.10;0.10;;;;;;;6.99;65.16;99479.56;5113737;28;20034;-81
2021/12/08 08:22:05;;;;;;;0.17;0.17;;;;;;;7.05;65.00;99481.16;5113700;28;20028;-80
2021/12/08 08:24:32;;;;;;;0.10;0.10;;;;;;;7.06;64.99;99478.47;5113414;28;20055;-81
2021/12/08 08:27:01;;;;;;;0.10;0.10;;;;;;;7.10;64.99;99480.13;5112700;28;20043;-81
2021/12/08 08:29:27;;;;;;;0.10;0.10;;;;;;;7.06;64.96;99481.09;5095124;28;20024;-81
2021/12/08 08:32:02;;;;;;;0.10;0.10;;;;;;;7.17;64.57;99482.59;5103064;28;20024;-82
2021/12/08 08:34:35;;;;;;;0.20;0.20;;;;;;;7.29;64.48;99487.53;5113412;28;20039;-80
2021/12/08 08:37:04;;;;;;;0.40;0.40;;;;;;;7.29;64.62;99488.38;5113870;28;20031;-80
2021/12/08 08:39:33;;;;;;;0.20;0.20;;;;;;;7.39;64.15;99493.38;5113128;28;20027;-85
2021/12/08 08:42:07;;;;;;;0.10;0.10;;;;;;;7.54;64.94;99486.78;5113593;28;20035;-82
2021/12/08 08:44:40;;;;;;;0.30;0.30;;;;;;;7.58;64.24;99488.44;5113381;28;20030;-82
2021/12/08 08:47:09;;;;;;;;;;;;;;;7.73;63.85;99497.69;5113540;28;20031;-82
2021/12/08 08:49:38;;;;;;;0.10;0.10;;;;;;;7.62;63.95;99495.34;5112774;28;19916;-83
2021/12/08 08:55:16;;;;;;;0.20;0.20;;;;;;;7.61;63.43;99505.03;5106633;27;20397;-83
2021/12/08 08:57:44;;;;;;;0.32;0.32;;;;;;;7.43;63.80;99506.41;5090441;28;20127;-81
2021/12/08 09:03:06;;;;;;;0.10;0.10;;;;;;;7.51;64.36;99518.53;5050033;28;20951;-83
2021/12/08 09:05:43;;;;;;;0.10;0.10;;;;;;;7.54;64.29;99519.31;5042951;28;20049;-83
2021/12/08 09:08:11;;;;;;;0.10;0.10;;;;;;;7.58;64.32;99515.66;5029782;28;20084;-83
2021/12/08 09:10:47;;;;;;;0.20;0.20;;;;;;;7.66;63.82;99525.97;5030755;28;20026;-83
2021/12/08 09:13:22;;;;;;;0.00;0.00;;;;;;;7.78;63.79;99522.13;5030451;28;20037;-82
2021/12/08 09:15:55;;;;;;;0.20;0.20;;;;;;;7.70;63.80;99525.00;5029950;28;20062;-81
2021/12/08 09:18:30;;;;;;;0.10;0.10;;;;;;;7.79;63.71;99526.50;5029874;28;20044;-82
2021/12/08 09:21:14;;;;;;;0.20;0.20;;;;;;;7.86;63.70;99519.25;5029673;28;20060;-84
2021/12/08 09:23:49;;;;;;;0.10;0.10;;;;;;;7.95;63.80;99524.25;5024913;28;20125;-81
2021/12/08 09:26:20;;;;;;;0.63;0.63;;;;;;;8.06;63.11;99519.53;5029858;28;20030;-83
2021/12/08 09:28:54;;;;;;;0.20;0.20;;;;;;;8.15;63.50;99522.75;5030053;28;20037;-82
2021/12/08 09:31:26;;;;;;;0.10;0.10;;;;;;;8.19;63.41;99527.06;5029919;28;20040;-82
2021/12/08 09:36:45;;;;;;;0.10;0.10;;;;;;;8.25;62.61;99517.16;5072440;27;20418;-84
2021/12/08 09:39:23;;;;;;;0.10;0.10;;;;;;;8.24;62.54;99511.94;5069523;28;20083;-80
2021/12/08 09:44:48;;;;;;;0.35;0.35;;;;;;;8.47;62.43;99520.91;5069496;28;20185;-83
2021/12/08 09:47:14;;;;;;;0.20;0.20;;;;;;;8.23;61.78;99528.69;5050379;28;20032;-83
2021/12/08 09:49:41;;;;;;;0.20;0.20;;;;;;;8.39;62.11;99539.63;5048764;28;20025;-85
2021/12/08 09:52:08;;;;;;;0.20;0.20;;;;;;;8.45;62.28;99549.09;5050110;28;20392;-81
2021/12/08 09:54:38;;;;;;;0.10;0.10;;;;;;;8.48;62.02;99549.06;5050136;28;20115;-82
2021/12/08 09:57:10;;;;;;;0.10;0.10;;;;;;;8.51;62.28;99554.22;5048112;28;20494;-82
2021/12/08 09:59:45;;;;;;;0.20;0.20;;;;;;;8.49;61.84;99556.91;5048345;28;20034;-83
2021/12/08 10:02:13;;;;;;;0.10;0.10;;;;;;;8.53;62.38;99550.59;5048323;28;20034;-81
2021/12/08 10:04:39;;;;;;;0.17;0.17;;;;;;;8.49;61.97;99563.97;5049524;28;20511;-92
2021/12/08 10:07:14;;;;;;;0.10;0.10;;;;;;;8.53;61.74;99568.25;5046352;28;20034;-84
2021/12/08 10:09:41;;;;;;;0.20;0.20;;;;;;;8.58;61.71;99567.19;5021198;28;20038;-84
2021/12/08 10:12:07;;;;;;;0.20;0.20;;;;;;;8.63;60.71;99567.03;5047811;28;20029;-85
2021/12/08 10:14:34;;;;;;;0.20;0.20;;;;;;;8.70;60.41;99560.63;5045442;28;20040;-82
2021/12/08 10:17:00;;;;;;;0.30;0.30;;;;;;;8.71;59.88;99572.03;5048039;28;20033;-85
2021/12/08 10:19:27;;;;;;;0.10;0.10;;;;;;;8.70;59.67;99575.63;5048220;28;20033;-86
2021/12/08 10:21:53;;;;;;;0.10;0.10;;;;;;;8.82;60.43;99579.63;5031070;28;20068;-82
2021/12/08 10:27:07;;;;;;;0.20;0.20;;;;;;;8.84;59.96;99572.53;5113029;27;20388;-87
2021/12/08 10:29:37;;;;;;;0.10;0.10;;;;;;;8.72;59.78;99569.38;5122168;27;20025;-84
2021/12/08 10:32:04;;;;;;;0.10;0.10;;;;;;;8.70;59.73;99576.47;5091037;28;20555;-86
2021/12/08 10:34:42;;;;;;;0.20;0.20;;;;;;;8.55;60.13;99574.34;5090898;28;20528;-85
2021/12/08 10:37:18;;;;;;;0.10;0.10;;;;;;;8.55;59.77;99571.69;5090873;28;20558;-85
2021/12/08 10:39:47;;;;;;;0.13;0.13;;;;;;;8.73;59.27;99572.88;5092093;28;20032;-86
2021/12/08 10:42:31;;;;;;;0.20;0.20;;;;;;;8.68;59.21;99573.00;5099230;28;20048;-86
2021/12/08 10:47:55;;;;;;;0.10;0.10;;;;;;;8.62;59.30;99573.22;5090501;27;20833;-84
2021/12/08 10:56:12;;;;;;;0.10;0.10;;;;;;;8.83;59.44;99578.72;5059180;28;20099;-86
2021/12/08 10:58:43;;;;;;;0.20;0.20;;;;;;;8.71;59.43;99583.50;5050443;28;20021;-83
2021/12/08 11:04:02;;;;;;;0.10;0.10;;;;;;;8.93;58.35;99580.13;5111637;27;20436;-86
2021/12/08 11:06:30;;;;;;;0.17;0.17;;;;;;;8.84;59.19;99583.09;5110088;28;20043;-87
2021/12/08 11:08:57;;;;;;;0.10;0.10;;;;;;;8.90;59.02;99588.16;5109671;28;20031;-88
2021/12/08 11:11:30;;;;;;;0.10;0.10;;;;;;;8.91;58.82;99584.63;5111670;28;20470;-87
2021/12/08 11:14:00;;;;;;;0.45;0.45;;;;;;;9.01;58.62;99586.03;5110509;28;20032;-86
2021/12/08 11:16:33;;;;;;;0.10;0.10;;;;;;;8.97;58.20;99581.78;5106849;28;20044;-85
2021/12/08 11:21:47;;;;;;;0.10;0.10;;;;;;;8.92;58.78;99586.31;5070294;27;20917;-86
2021/12/08 11:24:20;;;;;;;0.10;0.10;;;;;;;8.91;58.50;99584.63;5070020;28;20025;-87
2021/12/08 11:26:51;;;;;;;0.10;0.10;;;;;;;9.04;58.59;99580.63;5050714;28;20068;-87
2021/12/08 11:29:22;;;;;;;0.10;0.10;;;;;;;9.18;58.37;99579.28;5049803;28;20021;-89
2021/12/08 11:31:55;;;;;;;0.10;0.10;;;;;;;9.07;58.17;99574.38;5050701;28;20033;-86
2021/12/08 11:34:23;;;;;;;;;;;;;;;9.35;58.28;99573.44;5050171;28;20451;-86
2021/12/08 11:36:55;;;;;;;0.10;0.10;;;;;;;9.00;58.33;99584.28;5047131;28;19920;-87
2021/12/08 11:39:28;;;;;;;0.15;0.15;;;;;;;9.19;58.61;99576.59;5050448;28;20079;-86
2021/12/08 11:41:58;;;;;;;0.10;0.10;;;;;;;9.18;58.79;99574.88;5049561;28;20053;-83
2021/12/08 11:44:28;;;;;;;0.10;0.10;;;;;;;9.15;59.04;99582.91;5049798;28;20029;-86
2021/12/08 11:46:57;;;;;;;0.10;0.10;;;;;;;9.32;58.31;99592.91;5048756;28;20100;-85
2021/12/08 11:49:24;;;;;;;0.10;0.10;;;;;;;9.30;58.25;99586.78;5050916;28;20053;-87
2021/12/08 11:51:56;;;;;;;0.10;0.10;;;;;;;9.45;57.96;99592.47;5050735;28;20116;-84
2021/12/08 11:54:42;;;;;;;0.10;0.10;;;;;;;9.36;58.29;99586.59;5049853;28;20031;-89
2021/12/08 12:05:43;;;;;;;0.10;0.10;;;;;;;9.44;57.87;99609.25;5100911;27;20408;-84
2021/12/08 12:08:14;;;;;;;0.10;0.10;;;;;;;9.47;57.62;99614.41;5092366;28;20032;-85
2021/12/08 12:10:43;;;;;;;0.10;0.10;;;;;;;9.49;57.59;99607.31;5091910;28;20044;-86
2021/12/08 12:13:11;;;;;;;0.10;0.10;;;;;;;9.51;58.33;99610.75;5090916;28;20024;-86
2021/12/08 12:15:41;;;;;;;0.10;0.10;;;;;;;9.54;57.41;99616.81;5091325;28;20033;-85
2021/12/08 12:18:08;;;;;;;0.17;0.17;;;;;;;9.59;57.79;99603.41;5093648;28;20115;-85
2021/12/08 12:20:45;;;;;;;0.10;0.10;;;;;;;9.76;57.66;99605.44;5096424;28;20128;-85
2021/12/08 12:23:45;;;;;;;0.10;0.10;;;;;;;9.75;57.47;99613.44;5094404;28;20116;-86
2021/12/08 12:26:26;;;;;;;0.80;0.80;;;;;;;9.78;57.29;99618.59;5108495;28;20030;-84
2021/12/08 12:29:35;;;;;;;0.10;0.10;;;;;;;9.79;57.40;99620.34;5092897;28;20024;-85
2021/12/08 12:32:22;;;;;;;0.10;0.10;;;;;;;9.84;57.94;99610.44;5093334;28;20437;-85
2021/12/08 12:34:53;;;;;;;0.10;0.10;;;;;;;9.82;57.26;99620.22;5090358;28;20028;-85
2021/12/08 12:37:37;;;;;;;0.10;0.10;;;;;;;9.92;57.19;99633.97;5091371;28;20025;-85
2021/12/08 12:40:08;;;;;;;0.10;0.10;;;;;;;9.84;57.53;99623.69;5112046;28;20024;-86
2021/12/08 12:42:56;;;;;;;0.10;0.10;;;;;;;9.91;57.49;99633.13;5112572;28;20028;-90
2021/12/08 12:45:25;;;;;;;0.10;0.10;;;;;;;9.73;57.69;99637.28;5111634;28;20046;-85
2021/12/08 12:48:16;;;;;;;0.13;0.13;;;;;;;9.87;56.92;99640.31;5111823;28;20047;-78
2021/12/08 12:51:00;;;;;;;0.60;0.40;;;;;;;9.80;57.18;99646.72;5110172;28;20093;-83
2021/12/08 12:59:17;;;;;;;0.20;0.20;;;;;;;9.91;57.15;99656.94;5091361;27;20393;-87
2021/12/08 13:01:46;;;;;;;0.38;0.38;;;;;;;9.90;57.03;99655.19;5070543;28;20029;-86
2021/12/08 13:04:27;;;;;;;0.95;0.95;;;;;;;9.99;57.75;99660.19;5071270;28;20028;-86
2021/12/08 13:07:04;;;;;;;0.10;0.10;;;;;;;9.88;56.90;99662.31;5054675;28;20036;-86
2021/12/08 13:18:17;;;;;;;0.55;0.55;;;;;;;9.85;57.79;99673.03;5077320;27;20427;-83
2021/12/08 13:23:30;;;;;;;0.10;0.10;;;;;;;9.80;57.59;99685.56;5030436;28;20420;-85
2021/12/08 13:31:37;;;;;;;0.10;0.10;;;;;;;9.76;57.73;99679.50;5076522;27;20405;-86